Time,TemperatureF,DewpointF,PressureIn,WindDirection,WindDirectionDegrees,WindSpeedMPH,WindSpeedGustMPH,Humidity,HourlyPrecipIn,Conditions,Clouds,dailyrainin,SoftwareType,DateUTC
2013-09-21 00:00:00,56.5,37.0,30.06,North,0,0.0,0.0,48,0.00,,---,0.00,VWS V14.00,2013-09-21 04:00:00,
2013-09-21 00:01:00,56.5,37.0,30.06,North,0,0.0,0.0,48,0.00,,---,0.00,VWS V14.00,2013-09-21 04:01:00,
2013-09-21 00:06:00,56.3,36.9,30.03,North,0,0.0,0.0,48,0.00,,---,0.00,VWS V14.00,2013-09-21 04:06:00,
2013-09-21 00:11:00,55.8,36.9,30.03,North,0,0.0,0.0,49,0.00,,---,0.00,VWS V14.00,2013-09-21 04:11:00,
2013-09-21 00:16:00,55.6,37.2,30.03,North,0,0.0,0.0,50,0.00,,---,0.00,VWS V14.00,2013-09-21 04:16:00,
2013-09-21 00:21:00,55.6,37.2,30.03,North,0,0.0,0.0,50,0.00,,---,0.00,VWS V14.00,2013-09-21 04:21:00,
2013-09-21 00:26:00,55.6,37.2,30.03,North,0,0.0,0.0,50,0.00,,---,0.00,VWS V14.00,2013-09-21 04:26:00,
2013-09-21 00:31:00,55.0,37.8,30.03,North,0,0.0,0.0,52,0.00,,---,0.00,VWS V14.00,2013-09-21 04:31:00,
2013-09-21 00:36:00,55.0,37.8,30.03,North,0,0.0,0.0,52,0.00,,---,0.00,VWS V14.00,2013-09-21 04:36:00,
2013-09-21 00:41:00,55.0,38.2,30.03,North,0,0.0,0.0,53,0.00,,---,0.00,VWS V14.00,2013-09-21 04:41:00,
2013-09-21 00:46:00,55.0,38.2,30.03,North,0,0.0,0.0,53,0.00,,---,0.00,VWS V14.00,2013-09-21 04:46:00,
2013-09-21 00:51:00,54.7,38.4,30.03,North,0,0.0,0.0,54,0.00,,---,0.00,VWS V14.00,2013-09-21 04:51:00,
2013-09-21 00:56:00,54.7,38.4,30.03,North,0,0.0,0.0,54,0.00,,---,0.00,VWS V14.00,2013-09-21 04:56:00,
2013-09-21 01:01:00,54.3,38.0,30.03,North,0,0.0,0.0,54,0.00,,---,0.00,VWS V14.00,2013-09-21 05:01:00,
2013-09-21 01:06:00,54.1,38.8,30.03,North,0,0.0,0.0,56,0.00,,---,0.00,VWS V14.00,2013-09-21 05:06:00,
2013-09-21 01:11:00,54.1,38.8,30.03,North,0,0.0,0.0,56,0.00,,---,0.00,VWS V14.00,2013-09-21 05:11:00,
2013-09-21 01:16:00,54.1,38.8,30.03,North,0,0.0,0.0,56,0.00,,---,0.00,VWS V14.00,2013-09-21 05:16:00,
2013-09-21 01:21:00,54.1,38.8,30.03,North,0,0.0,0.0,56,0.00,,---,0.00,VWS V14.00,2013-09-21 05:21:00,
2013-09-21 01:26:00,54.1,38.8,30.03,North,0,0.0,0.0,56,0.00,,---,0.00,VWS V14.00,2013-09-21 05:26:00,
2013-09-21 01:31:00,53.6,39.6,30.03,North,0,0.0,0.0,59,0.00,,---,0.00,VWS V14.00,2013-09-21 05:31:00,
2013-09-21 01:36:00,53.4,39.9,30.03,North,0,0.0,0.0,60,0.00,,---,0.00,VWS V14.00,2013-09-21 05:36:00,
2013-09-21 01:41:00,53.4,39.9,30.03,North,0,0.0,0.0,60,0.00,,---,0.00,VWS V14.00,2013-09-21 05:41:00,
2013-09-21 01:46:00,53.2,39.7,30.03,North,0,0.0,0.0,60,0.00,,---,0.00,VWS V14.00,2013-09-21 05:46:00,
2013-09-21 01:51:00,53.2,40.6,30.03,North,0,0.0,0.0,62,0.00,,---,0.00,VWS V14.00,2013-09-21 05:51:00,
2013-09-21 01:56:00,53.2,40.6,30.03,North,0,0.0,0.0,62,0.00,,---,0.00,VWS V14.00,2013-09-21 05:56:00,
2013-09-21 02:01:00,53.2,40.6,30.03,North,0,0.0,0.0,62,0.00,,---,0.00,VWS V14.00,2013-09-21 06:01:00,
2013-09-21 02:06:00,53.2,40.6,30.03,North,0,0.0,0.0,62,0.00,,---,0.00,VWS V14.00,2013-09-21 06:06:00,
2013-09-21 02:11:00,53.1,42.0,30.03,North,0,0.0,0.0,66,0.00,,---,0.00,VWS V14.00,2013-09-21 06:11:00,
2013-09-21 02:16:00,53.2,42.2,30.03,North,0,0.0,0.0,66,0.00,,---,0.00,VWS V14.00,2013-09-21 06:16:00,
2013-09-21 02:21:00,53.4,42.4,30.03,North,0,0.0,0.0,66,0.00,,---,0.00,VWS V14.00,2013-09-21 06:21:00,
2013-09-21 02:26:00,53.4,42.4,30.03,North,0,0.0,0.0,66,0.00,,---,0.00,VWS V14.00,2013-09-21 06:26:00,
2013-09-21 02:31:00,53.4,42.4,30.03,North,0,0.0,0.0,66,0.00,,---,0.00,VWS V14.00,2013-09-21 06:31:00,
2013-09-21 02:36:00,53.2,42.2,30.00,North,0,0.0,0.0,66,0.00,,---,0.00,VWS V14.00,2013-09-21 06:36:00,
2013-09-21 02:41:00,53.2,42.2,30.00,North,0,0.0,0.0,66,0.00,,---,0.00,VWS V14.00,2013-09-21 06:41:00,
2013-09-21 02:46:00,53.2,42.2,30.00,North,0,0.0,0.0,66,0.00,,---,0.00,VWS V14.00,2013-09-21 06:46:00,
2013-09-21 02:51:00,53.4,43.1,30.00,North,0,0.0,0.0,68,0.00,,---,0.00,VWS V14.00,2013-09-21 06:51:00,
2013-09-21 02:56:00,53.2,42.6,30.00,North,0,0.0,0.0,67,0.00,,---,0.00,VWS V14.00,2013-09-21 06:56:00,
2013-09-21 03:01:00,53.4,43.1,30.00,North,0,0.0,0.0,68,0.00,,---,0.00,VWS V14.00,2013-09-21 07:01:00,
2013-09-21 03:06:00,53.4,43.1,30.00,North,0,0.0,0.0,68,0.00,,---,0.00,VWS V14.00,2013-09-21 07:06:00,
2013-09-21 03:11:00,53.4,43.1,30.00,North,0,0.0,0.0,68,0.00,,---,0.00,VWS V14.00,2013-09-21 07:11:00,
2013-09-21 03:16:00,53.4,43.5,30.00,North,0,0.0,0.0,69,0.00,,---,0.00,VWS V14.00,2013-09-21 07:16:00,
2013-09-21 03:21:00,53.4,43.5,30.00,North,0,0.0,0.0,69,0.00,,---,0.00,VWS V14.00,2013-09-21 07:21:00,
2013-09-21 03:26:00,53.6,44.1,30.00,North,0,0.0,0.0,70,0.00,,---,0.00,VWS V14.00,2013-09-21 07:26:00,
2013-09-21 03:31:00,53.6,44.1,30.00,North,0,0.0,0.0,70,0.00,,---,0.00,VWS V14.00,2013-09-21 07:31:00,
2013-09-21 03:36:00,54.0,44.4,30.00,North,0,0.0,0.0,70,0.00,,---,0.00,VWS V14.00,2013-09-21 07:36:00,
2013-09-21 03:41:00,54.0,44.4,30.00,North,0,0.0,0.0,70,0.00,,---,0.00,VWS V14.00,2013-09-21 07:41:00,
2013-09-21 03:46:00,54.0,44.4,30.00,North,0,0.0,0.0,70,0.00,,---,0.00,VWS V14.00,2013-09-21 07:46:00,
2013-09-21 03:51:00,54.1,45.0,30.00,North,0,0.0,0.0,71,0.00,,---,0.00,VWS V14.00,2013-09-21 07:51:00,
2013-09-21 03:56:00,54.1,45.0,30.00,North,0,0.0,0.0,71,0.00,,---,0.00,VWS V14.00,2013-09-21 07:56:00,
2013-09-21 04:01:00,54.1,45.0,30.00,North,0,0.0,0.0,71,0.00,,---,0.00,VWS V14.00,2013-09-21 08:01:00,
2013-09-21 04:06:00,54.5,45.7,30.00,North,0,0.0,0.0,72,0.00,,---,0.00,VWS V14.00,2013-09-21 08:06:00,
2013-09-21 04:11:00,54.7,45.8,30.00,North,0,0.0,0.0,72,0.00,,---,0.00,VWS V14.00,2013-09-21 08:11:00,
2013-09-21 04:16:00,54.7,45.8,30.00,North,0,0.0,0.0,72,0.00,,---,0.00,VWS V14.00,2013-09-21 08:16:00,
2013-09-21 04:21:00,54.7,45.8,30.00,North,0,0.0,0.0,72,0.00,,---,0.00,VWS V14.00,2013-09-21 08:21:00,
2013-09-21 04:26:00,54.7,45.8,30.00,North,0,0.0,0.0,72,0.00,,---,0.00,VWS V14.00,2013-09-21 08:26:00,
2013-09-21 04:31:00,54.7,45.8,30.00,North,0,0.0,0.0,72,0.00,,---,0.00,VWS V14.00,2013-09-21 08:31:00,
2013-09-21 04:36:00,54.0,44.8,30.00,North,0,0.0,0.0,71,0.00,,---,0.00,VWS V14.00,2013-09-21 08:36:00,
2013-09-21 04:41:00,54.0,45.2,30.00,North,0,0.0,0.0,72,0.00,,---,0.00,VWS V14.00,2013-09-21 08:41:00,
2013-09-21 04:46:00,54.0,45.2,30.00,North,0,0.0,0.0,72,0.00,,---,0.00,VWS V14.00,2013-09-21 08:46:00,
2013-09-21 04:51:00,54.0,45.5,30.00,North,0,0.0,0.0,73,0.00,,---,0.00,VWS V14.00,2013-09-21 08:51:00,
2013-09-21 04:56:00,54.0,45.5,30.00,North,0,0.0,0.0,73,0.00,,---,0.00,VWS V14.00,2013-09-21 08:56:00,
2013-09-21 05:01:00,54.9,46.7,30.00,North,0,0.0,0.0,74,0.00,,---,0.00,VWS V14.00,2013-09-21 09:01:00,
2013-09-21 05:06:00,54.9,46.7,30.00,North,0,0.0,0.0,74,0.00,,---,0.00,VWS V14.00,2013-09-21 09:06:00,
2013-09-21 05:11:00,55.2,47.1,30.00,North,0,0.0,0.0,74,0.00,,---,0.00,VWS V14.00,2013-09-21 09:11:00,
2013-09-21 05:16:00,55.2,46.7,30.00,North,0,0.0,0.0,73,0.00,,---,0.00,VWS V14.00,2013-09-21 09:16:00,
2013-09-21 05:21:00,55.2,46.7,30.00,North,0,0.0,0.0,73,0.00,,---,0.00,VWS V14.00,2013-09-21 09:21:00,
2013-09-21 05:26:00,55.2,47.1,30.00,North,0,0.0,0.0,74,0.00,,---,0.00,VWS V14.00,2013-09-21 09:26:00,
2013-09-21 05:31:00,55.4,47.3,30.00,North,0,0.0,0.0,74,0.00,,---,0.00,VWS V14.00,2013-09-21 09:31:00,
2013-09-21 05:36:00,55.4,47.3,30.00,North,0,0.0,0.0,74,0.00,,---,0.00,VWS V14.00,2013-09-21 09:36:00,
2013-09-21 05:41:00,55.4,47.3,30.00,North,0,0.0,0.0,74,0.00,,---,0.00,VWS V14.00,2013-09-21 09:41:00,
2013-09-21 05:46:00,55.8,47.6,30.00,North,0,0.0,0.0,74,0.00,,---,0.00,VWS V14.00,2013-09-21 09:46:00,
2013-09-21 05:51:00,55.8,47.6,30.00,North,0,0.0,0.0,74,0.00,,---,0.00,VWS V14.00,2013-09-21 09:51:00,
2013-09-21 05:56:00,55.8,47.6,30.00,North,0,0.0,0.0,74,0.00,,---,0.00,VWS V14.00,2013-09-21 09:56:00,
2013-09-21 06:01:00,55.8,47.6,30.00,North,0,0.0,0.0,74,0.00,,---,0.00,VWS V14.00,2013-09-21 10:01:00,
2013-09-21 06:06:00,55.8,47.6,30.00,North,0,0.0,0.0,74,0.00,,---,0.00,VWS V14.00,2013-09-21 10:06:00,
2013-09-21 06:11:00,55.8,47.6,30.00,North,0,0.0,0.0,74,0.00,,---,0.00,VWS V14.00,2013-09-21 10:11:00,
2013-09-21 06:16:00,55.8,47.6,30.00,North,0,0.0,0.0,74,0.00,,---,0.00,VWS V14.00,2013-09-21 10:16:00,
2013-09-21 06:21:00,55.8,47.6,30.00,North,0,0.0,0.0,74,0.00,,---,0.00,VWS V14.00,2013-09-21 10:21:00,
2013-09-21 06:26:00,55.8,47.6,30.00,North,0,0.0,0.0,74,0.00,,---,0.00,VWS V14.00,2013-09-21 10:26:00,
2013-09-21 06:31:00,55.4,47.6,30.00,North,0,0.0,0.0,75,0.00,,---,0.00,VWS V14.00,2013-09-21 10:31:00,
2013-09-21 06:36:00,55.4,47.6,30.00,North,0,0.0,0.0,75,0.00,,---,0.00,VWS V14.00,2013-09-21 10:36:00,
2013-09-21 06:41:00,55.4,47.6,30.00,North,0,0.0,0.0,75,0.00,,---,0.00,VWS V14.00,2013-09-21 10:41:00,
2013-09-21 06:46:00,55.4,47.6,29.97,North,0,0.0,0.0,75,0.00,,---,0.00,VWS V14.00,2013-09-21 10:46:00,
2013-09-21 06:51:00,55.4,47.6,29.97,North,0,0.0,0.0,75,0.00,,---,0.00,VWS V14.00,2013-09-21 10:51:00,
2013-09-21 06:56:00,55.2,47.8,29.97,North,0,0.0,0.0,76,0.00,,---,0.00,VWS V14.00,2013-09-21 10:56:00,
2013-09-21 07:01:00,55.2,47.8,29.97,North,0,0.0,0.0,76,0.00,,---,0.00,VWS V14.00,2013-09-21 11:01:00,
2013-09-21 07:05:00,55.2,47.8,29.97,North,0,0.0,0.0,76,0.00,,---,0.00,VWS V14.00,2013-09-21 11:05:00,
2013-09-21 07:10:00,55.2,48.2,29.97,North,0,0.0,0.0,77,0.00,,---,0.00,VWS V14.00,2013-09-21 11:10:00,
2013-09-21 07:15:00,55.2,48.2,29.97,North,0,0.0,0.0,77,0.00,,---,0.00,VWS V14.00,2013-09-21 11:15:00,
2013-09-21 07:20:00,55.2,48.2,29.97,North,0,0.0,0.0,77,0.00,,---,0.00,VWS V14.00,2013-09-21 11:20:00,
2013-09-21 07:25:00,55.4,48.3,29.97,North,0,0.0,0.0,77,0.00,,---,0.00,VWS V14.00,2013-09-21 11:25:00,
2013-09-21 07:30:00,55.4,48.3,29.97,North,0,0.0,0.0,77,0.00,,---,0.00,VWS V14.00,2013-09-21 11:30:00,
2013-09-21 07:35:00,55.8,49.0,29.97,North,0,0.0,0.0,78,0.00,,---,0.00,VWS V14.00,2013-09-21 11:35:00,
2013-09-21 07:40:00,55.8,49.0,29.97,North,0,0.0,0.0,78,0.00,,---,0.00,VWS V14.00,2013-09-21 11:40:00,
2013-09-21 07:45:00,56.5,50.4,29.97,North,0,0.0,0.0,80,0.00,,---,0.00,VWS V14.00,2013-09-21 11:45:00,
2013-09-21 07:50:00,56.5,50.4,29.97,North,0,0.0,0.0,80,0.00,,---,0.00,VWS V14.00,2013-09-21 11:50:00,
2013-09-21 07:55:00,57.7,51.6,29.97,North,0,0.0,0.0,80,0.00,,---,0.00,VWS V14.00,2013-09-21 11:55:00,
2013-09-21 08:00:00,59.4,53.5,29.97,North,0,0.0,0.0,81,0.00,,---,0.00,VWS V14.00,2013-09-21 12:00:00,
2013-09-21 08:05:00,60.3,54.1,29.97,North,0,0.0,0.0,80,0.00,,---,0.00,VWS V14.00,2013-09-21 12:05:00,
2013-09-21 08:10:00,60.3,54.1,29.97,North,0,0.0,0.0,80,0.00,,---,0.00,VWS V14.00,2013-09-21 12:10:00,
2013-09-21 08:15:00,60.3,54.1,29.97,North,0,0.0,0.0,80,0.00,,---,0.00,VWS V14.00,2013-09-21 12:15:00,
2013-09-21 08:20:00,60.3,54.1,29.97,North,0,0.0,0.0,80,0.00,,---,0.00,VWS V14.00,2013-09-21 12:20:00,
2013-09-21 08:25:00,63.3,56.7,29.97,North,0,0.0,0.0,79,0.00,,---,0.00,VWS V14.00,2013-09-21 12:25:00,
2013-09-21 08:30:00,63.7,57.0,29.97,North,0,0.0,0.0,79,0.00,,---,0.00,VWS V14.00,2013-09-21 12:30:00,
2013-09-21 08:35:00,63.7,57.0,29.97,North,0,0.0,0.0,79,0.00,,---,0.00,VWS V14.00,2013-09-21 12:35:00,
2013-09-21 08:40:00,65.1,58.8,29.97,North,0,0.0,0.0,80,0.00,,---,0.00,VWS V14.00,2013-09-21 12:40:00,
2013-09-21 08:45:00,65.1,58.8,29.94,North,0,0.0,0.0,80,0.00,,---,0.00,VWS V14.00,2013-09-21 12:45:00,
2013-09-21 08:50:00,65.1,58.8,29.94,North,0,0.0,0.0,80,0.00,,---,0.00,VWS V14.00,2013-09-21 12:50:00,
2013-09-21 08:55:00,67.8,62.5,29.94,North,0,0.0,0.0,83,0.00,,---,0.00,VWS V14.00,2013-09-21 12:55:00,
2013-09-21 09:00:00,69.4,63.7,29.94,North,0,0.0,0.0,82,0.00,,---,0.00,VWS V14.00,2013-09-21 13:00:00,
2013-09-21 09:05:00,69.4,63.7,29.94,North,0,0.0,0.0,82,0.00,,---,0.00,VWS V14.00,2013-09-21 13:05:00,
2013-09-21 09:10:00,70.2,64.4,29.94,North,0,0.0,0.0,82,0.00,,---,0.00,VWS V14.00,2013-09-21 13:10:00,
2013-09-21 09:15:00,70.9,63.7,29.94,North,0,0.0,0.0,78,0.00,,---,0.00,VWS V14.00,2013-09-21 13:15:00,
2013-09-21 09:20:00,70.9,63.7,29.94,North,0,0.0,0.0,78,0.00,,---,0.00,VWS V14.00,2013-09-21 13:20:00,
2013-09-21 09:25:00,70.9,63.7,29.94,North,0,0.0,0.0,78,0.00,,---,0.00,VWS V14.00,2013-09-21 13:25:00,
2013-09-21 09:30:00,71.6,47.9,29.94,North,0,0.0,0.0,43,0.00,,---,0.00,VWS V14.00,2013-09-21 13:30:00,
2013-09-21 09:35:00,72.1,46.5,29.94,North,0,0.0,0.0,40,0.00,,---,0.00,VWS V14.00,2013-09-21 13:35:00,
2013-09-21 09:40:00,72.7,45.6,29.94,North,0,0.0,0.0,38,0.00,,---,0.00,VWS V14.00,2013-09-21 13:40:00,
2013-09-21 09:45:00,73.0,44.5,29.94,North,0,0.0,0.0,36,0.00,,---,0.00,VWS V14.00,2013-09-21 13:45:00,
2013-09-21 09:50:00,73.8,42.9,29.94,North,0,0.0,0.0,33,0.00,,---,0.00,VWS V14.00,2013-09-21 13:50:00,
2013-09-21 09:55:00,73.8,42.1,29.94,North,0,0.0,0.0,32,0.00,,---,0.00,VWS V14.00,2013-09-21 13:55:00,
2013-09-21 10:00:00,73.8,42.1,29.94,North,0,0.0,0.0,32,0.00,,---,0.00,VWS V14.00,2013-09-21 14:00:00,
2013-09-21 10:05:00,74.3,40.0,29.94,North,0,0.0,0.0,29,0.00,,---,0.00,VWS V14.00,2013-09-21 14:05:00,
2013-09-21 10:10:00,74.3,40.0,29.94,North,0,0.0,0.0,29,0.00,,---,0.00,VWS V14.00,2013-09-21 14:10:00,
2013-09-21 10:15:00,74.8,34.6,29.94,North,0,0.0,0.0,23,0.00,,---,0.00,VWS V14.00,2013-09-21 14:15:00,
2013-09-21 10:20:00,75.0,33.6,29.94,North,0,0.0,0.0,22,0.00,,---,0.00,VWS V14.00,2013-09-21 14:20:00,
2013-09-21 10:25:00,75.0,32.5,29.94,North,0,0.0,0.0,21,0.00,,---,0.00,VWS V14.00,2013-09-21 14:25:00,
2013-09-21 10:30:00,75.0,32.5,29.91,North,0,0.0,0.0,21,0.00,,---,0.00,VWS V14.00,2013-09-21 14:30:00,
2013-09-21 10:35:00,75.0,32.5,29.91,North,0,0.0,0.0,21,0.00,,---,0.00,VWS V14.00,2013-09-21 14:35:00,
2013-09-21 10:40:00,75.0,32.5,29.91,North,0,0.0,0.0,21,0.00,,---,0.00,VWS V14.00,2013-09-21 14:40:00,
2013-09-21 10:45:00,75.0,32.5,29.91,North,0,0.0,0.0,21,0.00,,---,0.00,VWS V14.00,2013-09-21 14:45:00,
2013-09-21 10:50:00,76.6,33.8,29.91,North,0,0.0,0.0,21,0.00,,---,0.00,VWS V14.00,2013-09-21 14:50:00,
2013-09-21 10:55:00,76.6,33.8,29.91,North,0,0.0,0.0,21,0.00,,---,0.00,VWS V14.00,2013-09-21 14:55:00,
2013-09-21 11:00:00,76.6,30.0,29.91,North,0,0.0,0.0,18,0.00,,---,0.00,VWS V14.00,2013-09-21 15:00:00,
2013-09-21 11:05:00,75.6,24.7,29.91,North,0,0.0,0.0,15,0.00,,---,0.00,VWS V14.00,2013-09-21 15:05:00,
2013-09-21 11:10:00,75.6,24.7,29.91,North,0,0.0,0.0,15,0.00,,---,0.00,VWS V14.00,2013-09-21 15:10:00,
2013-09-21 11:15:00,75.2,28.8,29.91,North,0,0.0,0.0,18,0.00,,---,0.00,VWS V14.00,2013-09-21 15:15:00,
2013-09-21 11:20:00,75.7,24.9,29.91,North,0,0.0,0.0,15,0.00,,---,0.00,VWS V14.00,2013-09-21 15:20:00,
2013-09-21 11:25:00,75.7,24.9,29.91,North,0,0.0,0.0,15,0.00,,---,0.00,VWS V14.00,2013-09-21 15:25:00,
2013-09-21 11:30:00,76.5,25.4,29.91,North,0,0.0,0.0,15,0.00,,---,0.00,VWS V14.00,2013-09-21 15:30:00,
2013-09-21 11:35:00,77.9,23.1,29.91,North,0,0.0,0.0,13,0.00,,---,0.00,VWS V14.00,2013-09-21 15:35:00,
2013-09-21 11:40:00,77.9,23.1,29.91,North,0,0.0,0.0,13,0.00,,---,0.00,VWS V14.00,2013-09-21 15:40:00,
2013-09-21 11:45:00,78.4,23.6,29.91,North,0,0.0,0.0,13,0.00,,---,0.00,VWS V14.00,2013-09-21 15:45:00,
2013-09-21 11:50:00,78.4,23.6,29.91,North,0,0.0,0.0,13,0.00,,---,0.00,VWS V14.00,2013-09-21 15:50:00,
2013-09-21 11:55:00,79.0,22.1,29.91,North,0,0.0,0.0,12,0.00,,---,0.00,VWS V14.00,2013-09-21 15:55:00,
2013-09-21 12:00:00,78.6,23.7,29.88,North,0,0.0,0.0,13,0.00,,---,0.00,VWS V14.00,2013-09-21 16:00:00,
2013-09-21 12:05:00,78.6,23.7,29.88,North,0,0.0,0.0,13,0.00,,---,0.00,VWS V14.00,2013-09-21 16:05:00,
2013-09-21 12:10:00,78.6,23.7,29.88,North,0,0.0,0.0,13,0.00,,---,0.00,VWS V14.00,2013-09-21 16:10:00,
2013-09-21 12:15:00,79.5,22.5,29.88,North,0,0.0,0.0,12,0.00,,---,0.00,VWS V14.00,2013-09-21 16:15:00,
2013-09-21 12:20:00,79.9,22.8,29.88,North,0,0.0,0.0,12,0.00,,---,0.00,VWS V14.00,2013-09-21 16:20:00,
2013-09-21 12:25:00,79.9,22.8,29.88,North,0,0.0,0.0,12,0.00,,---,0.00,VWS V14.00,2013-09-21 16:25:00,
2013-09-21 12:30:00,79.9,22.8,29.88,North,0,0.0,0.0,12,0.00,,---,0.00,VWS V14.00,2013-09-21 16:30:00,
2013-09-21 12:35:00,79.7,22.6,29.88,North,0,0.0,0.0,12,0.00,,---,0.00,VWS V14.00,2013-09-21 16:35:00,
2013-09-21 12:40:00,79.9,22.8,29.88,North,0,0.0,0.0,12,0.00,,---,0.00,VWS V14.00,2013-09-21 16:40:00,
2013-09-21 12:45:00,80.1,22.9,29.88,North,0,0.0,0.0,12,0.00,,---,0.00,VWS V14.00,2013-09-21 16:45:00,
2013-09-21 12:50:00,80.2,23.1,29.88,North,0,0.0,0.0,12,0.00,,---,0.00,VWS V14.00,2013-09-21 16:50:00,
2013-09-21 12:55:00,80.2,23.1,29.88,North,0,0.0,0.0,12,0.00,,---,0.00,VWS V14.00,2013-09-21 16:55:00,
2013-09-21 13:00:00,80.8,23.5,29.88,North,0,0.0,0.0,12,0.00,,---,0.00,VWS V14.00,2013-09-21 17:00:00,
2013-09-21 13:05:00,80.6,23.4,29.85,North,0,0.0,0.0,12,0.00,,---,0.00,VWS V14.00,2013-09-21 17:05:00,
2013-09-21 13:10:00,81.5,24.0,29.85,North,0,0.0,0.0,12,0.00,,---,0.00,VWS V14.00,2013-09-21 17:10:00,
2013-09-21 13:15:00,81.5,24.0,29.85,North,0,0.0,0.0,12,0.00,,---,0.00,VWS V14.00,2013-09-21 17:15:00,
2013-09-21 13:20:00,82.0,24.5,29.85,North,0,0.0,0.0,12,0.00,,---,0.00,VWS V14.00,2013-09-21 17:20:00,
2013-09-21 13:25:00,82.2,24.6,29.85,North,0,0.0,0.0,12,0.00,,---,0.00,VWS V14.00,2013-09-21 17:25:00,
2013-09-21 13:30:00,81.9,24.3,29.85,North,0,0.0,0.0,12,0.00,,---,0.00,VWS V14.00,2013-09-21 17:30:00,
2013-09-21 13:35:00,81.5,24.0,29.85,North,0,0.0,0.0,12,0.00,,---,0.00,VWS V14.00,2013-09-21 17:35:00,
2013-09-21 13:40:00,81.5,24.0,29.85,North,0,0.0,0.0,12,0.00,,---,0.00,VWS V14.00,2013-09-21 17:40:00,
2013-09-21 13:45:00,81.5,24.0,29.85,North,0,0.0,0.0,12,0.00,,---,0.00,VWS V14.00,2013-09-21 17:45:00,
2013-09-21 13:50:00,81.7,24.2,29.85,North,0,0.0,0.0,12,0.00,,---,0.00,VWS V14.00,2013-09-21 17:50:00,
2013-09-21 13:55:00,81.7,24.2,29.83,North,0,0.0,0.0,12,0.00,,---,0.00,VWS V14.00,2013-09-21 17:55:00,
2013-09-21 14:00:00,81.9,24.3,29.83,North,0,0.0,0.0,12,0.00,,---,0.00,VWS V14.00,2013-09-21 18:00:00,
2013-09-21 14:05:00,81.7,24.2,29.83,North,0,0.0,0.0,12,0.00,,---,0.00,VWS V14.00,2013-09-21 18:05:00,
2013-09-21 14:10:00,81.1,23.8,29.83,North,0,0.0,0.0,12,0.00,,---,0.00,VWS V14.00,2013-09-21 18:10:00,
2013-09-21 14:15:00,81.1,23.8,29.83,North,0,0.0,0.0,12,0.00,,---,0.00,VWS V14.00,2013-09-21 18:15:00,
2013-09-21 14:20:00,81.1,23.8,29.83,North,0,0.0,0.0,12,0.00,,---,0.00,VWS V14.00,2013-09-21 18:20:00,
2013-09-21 14:25:00,81.1,23.8,29.83,North,0,0.0,0.0,12,0.00,,---,0.00,VWS V14.00,2013-09-21 18:25:00,
2013-09-21 14:30:00,81.3,23.9,29.83,North,0,0.0,0.0,12,0.00,,---,0.00,VWS V14.00,2013-09-21 18:30:00,
2013-09-21 14:35:00,81.3,23.9,29.83,North,0,0.0,0.0,12,0.00,,---,0.00,VWS V14.00,2013-09-21 18:35:00,
2013-09-21 14:40:00,81.1,23.8,29.83,North,0,0.0,0.0,12,0.00,,---,0.00,VWS V14.00,2013-09-21 18:40:00,
2013-09-21 14:45:00,81.0,23.6,29.83,North,0,0.0,0.0,12,0.00,,---,0.00,VWS V14.00,2013-09-21 18:45:00,
2013-09-21 14:50:00,80.6,23.4,29.83,North,0,0.0,0.0,12,0.00,,---,0.00,VWS V14.00,2013-09-21 18:50:00,
2013-09-21 14:55:00,80.6,23.4,29.83,North,0,0.0,0.0,12,0.00,,---,0.00,VWS V14.00,2013-09-21 18:55:00,
2013-09-21 15:00:00,80.2,23.1,29.83,North,0,0.0,0.0,12,0.00,,---,0.00,VWS V14.00,2013-09-21 19:00:00,
2013-09-21 15:05:00,80.2,23.1,29.83,North,0,0.0,0.0,12,0.00,,---,0.00,VWS V14.00,2013-09-21 19:05:00,
2013-09-21 15:10:00,79.9,22.8,29.83,North,0,0.0,0.0,12,0.00,,---,0.00,VWS V14.00,2013-09-21 19:10:00,
2013-09-21 15:15:00,79.9,22.8,29.80,North,0,0.0,0.0,12,0.00,,---,0.00,VWS V14.00,2013-09-21 19:15:00,
2013-09-21 15:20:00,80.2,23.1,29.80,North,0,0.0,0.0,12,0.00,,---,0.00,VWS V14.00,2013-09-21 19:20:00,
2013-09-21 15:25:00,79.5,22.5,29.80,North,0,0.0,0.0,12,0.00,,---,0.00,VWS V14.00,2013-09-21 19:25:00,
2013-09-21 15:30:00,79.2,22.2,29.80,North,0,0.0,0.0,12,0.00,,---,0.00,VWS V14.00,2013-09-21 19:30:00,
2013-09-21 15:35:00,79.2,22.2,29.80,North,0,0.0,0.0,12,0.00,,---,0.00,VWS V14.00,2013-09-21 19:35:00,
2013-09-21 15:40:00,78.6,23.7,29.80,North,0,0.0,0.0,13,0.00,,---,0.00,VWS V14.00,2013-09-21 19:40:00,
2013-09-21 15:45:00,79.0,22.1,29.80,North,0,0.0,0.0,12,0.00,,---,0.00,VWS V14.00,2013-09-21 19:45:00,
2013-09-21 15:50:00,79.0,22.1,29.80,North,0,0.0,0.0,12,0.00,,---,0.00,VWS V14.00,2013-09-21 19:50:00,
2013-09-21 15:55:00,78.8,22.0,29.80,North,0,0.0,0.0,12,0.00,,---,0.00,VWS V14.00,2013-09-21 19:55:00,
2013-09-21 16:00:00,78.8,22.0,29.80,North,0,0.0,0.0,12,0.00,,---,0.00,VWS V14.00,2013-09-21 20:00:00,
2013-09-21 16:05:00,78.3,23.4,29.80,North,0,0.0,0.0,13,0.00,,---,0.00,VWS V14.00,2013-09-21 20:05:00,
2013-09-21 16:10:00,78.3,23.4,29.80,North,0,0.0,0.0,13,0.00,,---,0.00,VWS V14.00,2013-09-21 20:10:00,
2013-09-21 16:15:00,77.5,26.3,29.80,North,0,0.0,0.0,15,0.00,,---,0.00,VWS V14.00,2013-09-21 20:15:00,
2013-09-21 16:20:00,77.5,26.3,29.80,North,0,0.0,0.0,15,0.00,,---,0.00,VWS V14.00,2013-09-21 20:20:00,
2013-09-21 16:25:00,77.2,26.0,29.80,North,0,0.0,0.0,15,0.00,,---,0.00,VWS V14.00,2013-09-21 20:25:00,
2013-09-21 16:30:00,76.8,25.7,29.80,North,0,0.0,0.0,15,0.00,,---,0.00,VWS V14.00,2013-09-21 20:30:00,
2013-09-21 16:35:00,76.8,25.7,29.80,North,0,0.0,0.0,15,0.00,,---,0.00,VWS V14.00,2013-09-21 20:35:00,
2013-09-21 16:40:00,76.3,25.3,29.80,North,0,0.0,0.0,15,0.00,,---,0.00,VWS V14.00,2013-09-21 20:40:00,
2013-09-21 16:45:00,75.9,25.0,29.80,North,0,0.0,0.0,15,0.00,,---,0.00,VWS V14.00,2013-09-21 20:45:00,
2013-09-21 16:50:00,75.9,25.0,29.77,North,0,0.0,0.0,15,0.00,,---,0.00,VWS V14.00,2013-09-21 20:50:00,
2013-09-21 16:55:00,75.6,29.1,29.77,North,0,0.0,0.0,18,0.00,,---,0.00,VWS V14.00,2013-09-21 20:55:00,
2013-09-21 17:00:00,75.2,28.8,29.77,North,0,0.0,0.0,18,0.00,,---,0.00,VWS V14.00,2013-09-21 21:00:00,
2013-09-21 17:05:00,75.0,32.5,29.77,North,0,0.0,0.0,21,0.00,,---,0.00,VWS V14.00,2013-09-21 21:05:00,
2013-09-21 17:10:00,75.0,32.5,29.77,North,0,0.0,0.0,21,0.00,,---,0.00,VWS V14.00,2013-09-21 21:10:00,
2013-09-21 17:15:00,74.8,32.3,29.77,North,0,0.0,0.0,21,0.00,,---,0.00,VWS V14.00,2013-09-21 21:15:00,
2013-09-21 17:20:00,74.8,32.3,29.77,North,0,0.0,0.0,21,0.00,,---,0.00,VWS V14.00,2013-09-21 21:20:00,
2013-09-21 17:25:00,74.8,32.3,29.77,North,0,0.0,0.0,21,0.00,,---,0.00,VWS V14.00,2013-09-21 21:25:00,
2013-09-21 17:30:00,74.7,32.2,29.77,North,0,0.0,0.0,21,0.00,,---,0.00,VWS V14.00,2013-09-21 21:30:00,
2013-09-21 17:35:00,74.7,32.2,29.77,North,0,0.0,0.0,21,0.00,,---,0.00,VWS V14.00,2013-09-21 21:35:00,
2013-09-21 17:40:00,74.7,32.2,29.77,North,0,0.0,0.0,21,0.00,,---,0.00,VWS V14.00,2013-09-21 21:40:00,
2013-09-21 17:45:00,74.5,33.2,29.77,North,0,0.0,0.0,22,0.00,,---,0.00,VWS V14.00,2013-09-21 21:45:00,
2013-09-21 17:50:00,74.5,33.2,29.77,North,0,0.0,0.0,22,0.00,,---,0.00,VWS V14.00,2013-09-21 21:50:00,
2013-09-21 17:55:00,74.5,33.2,29.77,North,0,0.0,0.0,22,0.00,,---,0.00,VWS V14.00,2013-09-21 21:55:00,
2013-09-21 18:00:00,74.5,33.2,29.77,North,0,0.0,0.0,22,0.00,,---,0.00,VWS V14.00,2013-09-21 22:00:00,
2013-09-21 18:05:00,74.5,33.2,29.77,North,0,0.0,0.0,22,0.00,,---,0.00,VWS V14.00,2013-09-21 22:05:00,
2013-09-21 18:10:00,74.5,33.2,29.77,North,0,0.0,0.0,22,0.00,,---,0.00,VWS V14.00,2013-09-21 22:10:00,
2013-09-21 18:15:00,74.1,35.1,29.77,North,0,0.0,0.0,24,0.00,,---,0.00,VWS V14.00,2013-09-21 22:15:00,
2013-09-21 18:20:00,74.1,36.1,29.77,North,0,0.0,0.0,25,0.00,,---,0.00,VWS V14.00,2013-09-21 22:20:00,
2013-09-21 18:25:00,74.1,36.1,29.77,North,0,0.0,0.0,25,0.00,,---,0.00,VWS V14.00,2013-09-21 22:25:00,
2013-09-21 18:30:00,73.9,36.9,29.77,North,0,0.0,0.0,26,0.00,,---,0.00,VWS V14.00,2013-09-21 22:30:00,
2013-09-21 18:35:00,73.9,36.9,29.77,North,0,0.0,0.0,26,0.00,,---,0.00,VWS V14.00,2013-09-21 22:35:00,
2013-09-21 18:40:00,73.8,37.7,29.77,North,0,0.0,0.0,27,0.00,,---,0.00,VWS V14.00,2013-09-21 22:40:00,
2013-09-21 18:45:00,73.8,37.7,29.77,North,0,0.0,0.0,27,0.00,,---,0.00,VWS V14.00,2013-09-21 22:45:00,
2013-09-21 18:50:00,73.4,40.1,29.77,North,0,0.0,0.0,30,0.00,,---,0.00,VWS V14.00,2013-09-21 22:50:00,
2013-09-21 18:55:00,73.4,40.1,29.77,North,0,0.0,0.0,30,0.00,,---,0.00,VWS V14.00,2013-09-21 22:55:00,
2013-09-21 19:00:00,73.2,41.6,29.77,North,0,0.0,0.0,32,0.00,,---,0.00,VWS V14.00,2013-09-21 23:00:00,
2013-09-21 19:05:00,73.2,41.6,29.77,North,0,0.0,0.0,32,0.00,,---,0.00,VWS V14.00,2013-09-21 23:05:00,
2013-09-21 19:10:00,72.9,41.3,29.77,North,0,0.0,0.0,32,0.00,,---,0.00,VWS V14.00,2013-09-21 23:10:00,
2013-09-21 19:15:00,72.7,42.0,29.77,North,0,0.0,0.0,33,0.00,,---,0.00,VWS V14.00,2013-09-21 23:15:00,
2013-09-21 19:20:00,72.7,42.0,29.77,North,0,0.0,0.0,33,0.00,,---,0.00,VWS V14.00,2013-09-21 23:20:00,
2013-09-21 19:25:00,72.5,43.3,29.77,North,0,0.0,0.0,35,0.00,,---,0.00,VWS V14.00,2013-09-21 23:25:00,
2013-09-21 19:30:00,72.5,43.3,29.77,North,0,0.0,0.0,35,0.00,,---,0.00,VWS V14.00,2013-09-21 23:30:00,
2013-09-21 19:35:00,72.5,43.3,29.77,North,0,0.0,0.0,35,0.00,,---,0.00,VWS V14.00,2013-09-21 23:35:00,
2013-09-21 19:40:00,71.8,44.1,29.77,North,0,0.0,0.0,37,0.00,,---,0.00,VWS V14.00,2013-09-21 23:40:00,
2013-09-21 19:45:00,71.2,46.4,29.77,North,0,0.0,0.0,41,0.00,,---,0.00,VWS V14.00,2013-09-21 23:45:00,
2013-09-21 19:50:00,71.1,46.8,29.77,North,0,0.0,0.0,42,0.00,,---,0.00,VWS V14.00,2013-09-21 23:50:00,
2013-09-21 19:55:00,71.1,48.1,29.77,North,0,0.0,0.0,44,0.00,,---,0.00,VWS V14.00,2013-09-21 23:55:00,
2013-09-21 20:00:00,71.1,48.1,29.77,North,0,0.0,0.0,44,0.00,,---,0.00,VWS V14.00,2013-09-22 00:00:00,
2013-09-21 20:05:00,71.1,48.1,29.77,North,0,0.0,0.0,44,0.00,,---,0.00,VWS V14.00,2013-09-22 00:05:00,
2013-09-21 20:09:00,71.1,48.1,29.77,North,0,0.0,0.0,44,0.00,,---,0.00,VWS V14.00,2013-09-22 00:09:00,
2013-09-21 20:14:00,70.5,51.0,29.77,North,0,0.0,0.0,50,0.04,,---,0.04,VWS V14.00,2013-09-22 00:14:00,
2013-09-21 20:19:00,70.5,52.1,29.77,North,0,0.0,0.0,52,0.04,,---,0.04,VWS V14.00,2013-09-22 00:19:00,
2013-09-21 20:24:00,70.3,52.4,29.77,North,0,0.0,0.0,53,0.04,,---,0.04,VWS V14.00,2013-09-22 00:24:00,
2013-09-21 20:29:00,70.3,53.9,29.77,North,0,0.0,0.0,56,0.08,,---,0.08,VWS V14.00,2013-09-22 00:29:00,
2013-09-21 20:34:00,70.2,54.7,29.77,North,0,0.0,0.0,58,0.08,,---,0.08,VWS V14.00,2013-09-22 00:34:00,
2013-09-21 20:39:00,70.2,54.7,29.77,North,0,0.0,0.0,58,0.08,,---,0.08,VWS V14.00,2013-09-22 00:39:00,
2013-09-21 20:44:00,70.2,54.7,29.77,North,0,0.0,0.0,58,0.12,,---,0.12,VWS V14.00,2013-09-22 00:44:00,
2013-09-21 20:49:00,70.2,56.1,29.77,North,0,0.0,0.0,61,0.12,,---,0.12,VWS V14.00,2013-09-22 00:49:00,
2013-09-21 20:54:00,70.2,56.1,29.77,North,0,0.0,0.0,61,0.12,,---,0.12,VWS V14.00,2013-09-22 00:54:00,
2013-09-21 20:59:00,70.0,56.8,29.77,North,0,0.0,0.0,63,0.16,,---,0.16,VWS V14.00,2013-09-22 00:59:00,
2013-09-21 21:04:00,70.0,56.8,29.77,North,0,0.0,0.0,63,0.16,,---,0.16,VWS V14.00,2013-09-22 01:04:00,
2013-09-21 21:09:00,70.0,57.3,29.77,North,0,0.0,0.0,64,0.16,,---,0.16,VWS V14.00,2013-09-22 01:09:00,
2013-09-21 21:14:00,70.0,58.1,29.77,North,0,0.0,0.0,66,0.20,,---,0.20,VWS V14.00,2013-09-22 01:14:00,
2013-09-21 21:19:00,70.0,58.1,29.77,North,0,0.0,0.0,66,0.16,,---,0.20,VWS V14.00,2013-09-22 01:19:00,
2013-09-21 21:24:00,70.0,58.5,29.77,North,0,0.0,0.0,67,0.16,,---,0.20,VWS V14.00,2013-09-22 01:24:00,
2013-09-21 21:29:00,70.0,59.0,29.77,North,0,0.0,0.0,68,0.20,,---,0.24,VWS V14.00,2013-09-22 01:29:00,
2013-09-21 21:34:00,70.0,59.3,29.77,North,0,0.0,0.0,69,0.16,,---,0.24,VWS V14.00,2013-09-22 01:34:00,
2013-09-21 21:39:00,70.0,59.3,29.77,North,0,0.0,0.0,69,0.16,,---,0.24,VWS V14.00,2013-09-22 01:39:00,
2013-09-21 21:44:00,69.8,59.6,29.77,North,0,0.0,0.0,70,0.16,,---,0.24,VWS V14.00,2013-09-22 01:44:00,
2013-09-21 21:49:00,69.8,59.6,29.77,North,0,0.0,0.0,70,0.16,,---,0.28,VWS V14.00,2013-09-22 01:49:00,
2013-09-21 21:54:00,69.8,59.6,29.77,North,0,0.0,0.0,70,0.16,,---,0.28,VWS V14.00,2013-09-22 01:54:00,
2013-09-21 21:59:00,69.8,59.6,29.77,North,0,0.0,0.0,70,0.16,,---,0.28,VWS V14.00,2013-09-22 01:59:00,
2013-09-21 22:04:00,69.8,60.4,29.77,North,0,0.0,0.0,72,0.12,,---,0.28,VWS V14.00,2013-09-22 02:04:00,
2013-09-21 22:09:00,69.6,60.2,29.77,North,0,0.0,0.0,72,0.12,,---,0.28,VWS V14.00,2013-09-22 02:09:00,
2013-09-21 22:14:00,69.6,60.6,29.77,North,0,0.0,0.0,73,0.12,,---,0.28,VWS V14.00,2013-09-22 02:14:00,
2013-09-21 22:19:00,69.4,60.8,29.77,North,0,0.0,0.0,74,0.16,,---,0.35,VWS V14.00,2013-09-22 02:19:00,
2013-09-21 22:24:00,69.4,60.8,29.77,North,0,0.0,0.0,74,0.16,,---,0.35,VWS V14.00,2013-09-22 02:24:00,
2013-09-21 22:29:00,69.4,60.8,29.77,North,0,0.0,0.0,74,0.16,,---,0.35,VWS V14.00,2013-09-22 02:29:00,
2013-09-21 22:34:00,69.1,60.5,29.77,North,0,0.0,0.0,74,0.16,,---,0.39,VWS V14.00,2013-09-22 02:34:00,
2013-09-21 22:39:00,69.1,60.5,29.77,North,0,0.0,0.0,74,0.20,,---,0.43,VWS V14.00,2013-09-22 02:39:00,
2013-09-21 22:44:00,68.9,60.7,29.77,North,0,0.0,0.0,75,0.20,,---,0.43,VWS V14.00,2013-09-22 02:44:00,
2013-09-21 22:49:00,68.9,60.7,29.77,North,0,0.0,0.0,75,0.16,,---,0.43,VWS V14.00,2013-09-22 02:49:00,
2013-09-21 22:54:00,68.9,60.7,29.77,North,0,0.0,0.0,75,0.20,,---,0.47,VWS V14.00,2013-09-22 02:54:00,
2013-09-21 22:59:00,68.5,60.3,29.77,North,0,0.0,0.0,75,0.20,,---,0.47,VWS V14.00,2013-09-22 02:59:00,
2013-09-21 23:04:00,68.5,60.3,29.77,North,0,0.0,0.0,75,0.20,,---,0.47,VWS V14.00,2013-09-22 03:04:00,
2013-09-21 23:09:00,67.3,58.7,29.77,North,0,0.0,0.0,74,0.20,,---,0.47,VWS V14.00,2013-09-22 03:09:00,
2013-09-21 23:14:00,67.3,58.7,29.74,North,0,0.0,0.0,74,0.20,,---,0.47,VWS V14.00,2013-09-22 03:14:00,
2013-09-21 23:20:00,66.7,58.2,29.74,North,0,0.0,0.0,74,0.20,,---,0.47,VWS V14.00,2013-09-22 03:20:00,
2013-09-21 23:25:00,66.7,58.2,29.74,North,0,0.0,0.0,74,0.12,,---,0.47,VWS V14.00,2013-09-22 03:25:00,
2013-09-21 23:30:00,66.6,58.0,29.74,North,0,0.0,0.0,74,0.16,,---,0.51,VWS V14.00,2013-09-22 03:30:00,
2013-09-21 23:35:00,66.4,58.2,29.74,North,0,0.0,0.0,75,0.16,,---,0.51,VWS V14.00,2013-09-22 03:35:00,
2013-09-21 23:40:00,66.4,58.2,29.74,North,0,0.0,0.0,75,0.12,,---,0.51,VWS V14.00,2013-09-22 03:40:00,
2013-09-21 23:45:00,66.4,58.2,29.74,North,0,0.0,0.0,75,0.08,,---,0.51,VWS V14.00,2013-09-22 03:45:00,
2013-09-21 23:50:00,66.2,58.0,29.74,North,0,0.0,0.0,75,0.08,,---,0.51,VWS V14.00,2013-09-22 03:50:00,
2013-09-21 23:55:00,66.2,58.4,29.74,North,0,0.0,0.0,76,0.08,,---,0.51,VWS V14.00,2013-09-22 03:55:00,